Latest Weather Observations for Yulara

IDD60801

Issued at 9:51 pm CST Friday 23 February 2024 (issued every 10 minutes, with the page automatically refreshed every 10 minutes)

About weather observations | Map of weather stations | Latest weather observations for NT | Other Formats
Station Details ID: 015635 Name: YULARA AIRPORT Lat: -25.19 Lon: 130.97 Height: 492.0 m
Data from the previous 72 hours. | See also: Recent months at Yulara
Date/Time
CST
Temp
°C
App
Temp
°C
Dew
Point
°C
Rel
Hum
%
Delta-T
°C
Wind Press
QNH
hPa
Press
MSL
hPa
Rain since
9am
mm
Dir  Spd
km/h
Gust
km/h
Spd
kts
Gust
kts
23/09:30pm 34.7 31.3 10.5 23 14.4 SSE 19 28 10 15 1012.9 1009.1 0.0
23/09:00pm 35.4 31.4 10.4 22 14.9 SSE 22 32 12 17 1012.5 1008.7 0.0
23/08:30pm 36.2 31.8 10.4 21 15.4 SSE 24 35 13 19 1012.1 1008.4 0.0
23/08:00pm 37.2 32.6 11.2 21 15.7 SE 26 35 14 19 1011.5 1007.7 0.0
23/07:30pm 38.9 35.2 9.4 17 17.5 SE 19 30 10 16 1011.0 1007.2 0.0
23/07:00pm 39.9 37.3 9.3 16 18.2 SE 13 20 7 11 1010.5 1006.7 0.0
23/06:30pm 40.1 37.5 9.5 16 18.3 ESE 13 22 7 12 1010.2 1006.5 0.0
23/06:00pm 40.9 37.5 9.2 15 19.0 SSE 17 28 9 15 1010.0 1006.2 0.0
23/05:30pm 40.8 39.1 10.0 16 18.6 ESE 9 17 5 9 1009.8 1006.0 0.0
23/05:00pm 41.4 38.9 9.6 15 19.1 S 13 24 7 13 1009.8 1006.0 0.0
23/04:30pm 40.7 37.1 10.0 16 18.5 ESE 19 30 10 16 1009.9 1006.1 0.0
23/04:00pm 41.8 40.4 10.8 16 19.0 ESE 9 19 5 10 1010.0 1006.2 0.0
23/03:30pm 40.6 38.8 10.8 17 18.2 ESE 11 24 6 13 1010.4 1006.6 0.0
23/03:00pm 40.6 38.2 9.9 16 18.5 ESE 13 22 7 12 1010.7 1006.9 0.0
23/02:30pm 40.9 38.4 11.0 17 18.3 E 15 26 8 14 1011.1 1007.3 0.0
23/02:00pm 39.7 37.9 10.9 18 17.5 E 11 19 6 10 1011.4 1007.6 0.0
23/01:30pm 39.1 37.4 11.3 19 17.0 SE 11 20 6 11 1011.8 1008.0 0.0
23/01:00pm 39.3 36.8 12.2 20 16.8 E 17 28 9 15 1012.5 1008.7 0.0
23/12:30pm 37.6 35.6 11.5 21 15.9 ESE 13 24 7 13 1013.0 1009.2 0.0
23/12:00pm 37.3 35.3 12.7 23 15.2 ENE 15 26 8 14 1013.5 1009.7 0.0
23/11:30am 36.8 35.2 12.9 24 14.8 E 13 24 7 13 1013.7 1009.9 0.0
23/11:00am 35.2 32.8 12.8 26 13.8 ESE 17 26 9 14 1013.9 1010.1 0.0
23/10:30am 34.2 31.2 13.6 28 12.8 ESE 22 32 12 17 1014.0 1010.3 0.0
23/10:00am 33.3 30.0 13.9 31 12.0 ESE 24 33 13 18 1014.1 1010.4 0.0
23/09:30am 31.9 28.6 14.1 34 11.0 SE 24 33 13 18 1014.2 1010.5 0.0
23/09:00am 31.0 28.2 14.2 36 10.4 SE 22 32 12 17 1014.2 1010.5 0.0
23/08:30am 29.3 26.5 14.3 40 9.2 SSE 22 33 12 18 1014.1 1010.4 0.0
23/08:00am 28.3 25.5 14.2 42 8.6 SSE 22 30 12 16 1014.1 1010.4 0.0
23/07:30am 26.9 24.6 14.0 45 7.8 S 19 24 10 13 1013.8 1010.0 0.0
23/07:00am 26.2 24.2 14.0 47 7.4 S 17 22 9 12 1013.6 1009.8 0.0
23/06:30am 26.6 24.5 13.7 45 7.8 S 17 22 9 12 1013.2 1009.4 0.0
23/06:00am 27.4 25.3 13.7 43 8.3 S 17 22 9 12 1013.0 1009.2 0.0
23/05:30am 28.1 25.6 13.6 41 8.8 S 19 24 10 13 1012.7 1008.9 0.0
23/05:00am 29.0 26.4 13.2 37 9.6 S 19 24 10 13 1012.1 1008.4 0.0
23/04:30am 28.9 26.5 10.1 31 10.8 S 13 15 7 8 1011.8 1008.0 0.0
23/04:00am 29.2 25.5 4.6 21 12.9 S 13 19 7 10 1011.6 1007.8 0.0
23/03:30am 29.4 25.5 3.4 19 13.4 SSW 13 15 7 8 1011.5 1007.7 0.0
23/03:00am 30.1 25.6 2.4 17 14.1 S 15 22 8 12 1011.2 1007.4 0.0
23/02:30am 30.1 26.0 2.4 17 14.1 S 13 19 7 10 1011.0 1007.2 0.0
23/02:00am 30.2 24.9 1.6 16 14.4 S 19 20 10 11 1011.1 1007.3 0.0
23/01:30am 30.4 26.2 1.8 16 14.5 S 13 17 7 9 1011.0 1007.2 0.0
23/01:00am 30.7 25.3 1.1 15 14.8 SSW 19 20 10 11 1010.7 1006.9 0.0
23/12:30am 31.7 28.3 1.9 15 15.2 SE 9 11 5 6 1010.1 1006.3 0.0
23/12:00am 33.3 29.4 1.2 13 16.4 E 11 13 6 7 1009.9 1006.1 0.0
 
Date/Time
CST
Temp
°C
App
Temp
°C
Dew
Point
°C
Rel
Hum
%
Delta-T
°C
Wind Press
QNH
hPa
Press
MSL
hPa
Rain since
9am
mm
Dir  Spd
km/h
Gust
km/h
Spd
kts
Gust
kts
22/11:30pm 33.8 30.4 1.6 13 16.6 E 9 11 5 6 1009.9 1006.1 0.0
22/11:00pm 34.0 31.0 1.7 13 16.7 ESE 7 9 4 5 1010.0 1006.2 0.0
22/10:30pm 35.2 31.7 1.5 12 17.5 ESE 9 13 5 7 1010.0 1006.2 0.0
22/10:00pm 34.8 31.3 1.2 12 17.3 SSE 9 9 5 5 1009.8 1006.0 0.0
22/09:30pm 36.4 32.5 1.2 11 18.3 SE 11 11 6 6 1009.5 1005.7 0.0
22/09:00pm 37.1 33.7 1.8 11 18.6 SE 9 11 5 6 1009.3 1005.5 0.0
22/08:30pm 38.4 34.9 1.4 10 19.5 SE 9 11 5 6 1008.9 1005.1 0.0
22/08:00pm 40.6 36.4 1.6 9 20.8 ESE 13 17 7 9 1008.6 1004.8 0.0
22/07:30pm 41.5 36.8 0.6 8 21.7 SE 15 20 8 11 1008.3 1004.4 0.0
22/07:00pm 42.6 37.2 1.4 8 22.2 SE 19 32 10 17 1007.9 1004.1 0.0
22/06:30pm 43.3 37.8 1.9 8 22.6 SSE 20 32 11 17 1007.8 1004.0 0.0
22/06:00pm 44.0 38.3 0.6 7 23.3 S 20 33 11 18 1007.5 1003.7 0.0
22/05:30pm 44.2 37.8 0.7 7 23.4 ESE 24 43 13 23 1007.3 1003.5 0.0
22/05:00pm 44.2 38.5 2.6 8 23.0 SSE 22 41 12 22 1007.5 1003.7 0.0
22/04:30pm 44.7 39.4 2.9 8 23.3 SSE 20 63 11 34 1007.2 1003.4 0.0
22/04:00pm 43.8 37.6 2.3 8 22.8 SSE 24 39 13 21 1007.7 1003.9 0.0
22/03:30pm 44.1 38.9 2.5 8 23.0 SE 19 32 10 17 1007.9 1004.1 0.0
22/03:00pm 44.6 38.5 2.9 8 23.2 SSE 24 43 13 23 1008.2 1004.3 0.0
22/02:30pm 43.9 39.0 4.0 9 22.5 SSE 19 28 10 15 1008.6 1004.8 0.0
22/02:14pm 44.2 38.1 2.6 8 23.0 S 24 54 13 29 1008.5 1004.7 0.0
22/02:00pm 43.7 40.3 3.9 9 22.3 SSE 11 24 6 13 1008.9 1005.1 0.0
22/01:30pm 42.8 36.4 3.2 9 21.9 SE 26 39 14 21 1009.4 1005.6 0.0
22/01:00pm 42.0 37.9 4.1 10 21.1 SSE 15 28 8 15 1009.7 1005.9 0.0
22/12:30pm 42.1 37.6 4.2 10 21.2 SE 17 28 9 15 1010.2 1006.5 0.0
22/12:00pm 41.3 38.1 4.9 11 20.5 ESE 11 24 6 13 1010.5 1006.7 0.0
22/11:30am 39.6 36.2 6.1 13 19.1 WSW 13 22 7 12 1011.0 1007.2 0.0
22/11:00am 39.4 36.3 8.9 16 18.0 W 15 28 8 15 1011.4 1007.6 0.0
22/10:30am 38.6 35.4 10.0 18 17.1 NW 17 24 9 13 1011.7 1007.9 0.0
22/10:00am 37.1 34.2 11.1 21 15.7 WNW 17 24 9 13 1012.2 1008.5 0.0
22/09:30am 35.6 32.8 9.9 21 15.2 NW 15 20 8 11 1012.2 1008.5 0.0
22/09:00am 34.7 31.7 9.2 21 14.9 NW 15 20 8 11 1012.2 1008.5 0.0
22/08:30am 33.2 30.2 9.3 23 13.9 NW 15 20 8 11 1012.2 1008.5 0.0
22/08:00am 31.7 29.7 8.7 24 13.1 NNW 9 17 5 9 1011.9 1008.1 0.0
22/07:30am 30.0 27.8 5.3 21 13.2 ENE 6 7 3 4 1011.8 1008.0 0.0
22/07:00am 29.2 26.9 4.6 21 12.9 ENE 6 9 3 5 1011.6 1007.8 0.0
22/06:30am 28.9 26.5 4.4 21 12.8 E 6 11 3 6 1011.3 1007.5 0.0
22/06:00am 30.5 27.9 4.3 19 13.8 E 7 9 4 5 1010.9 1007.1 0.0
22/05:30am 30.8 28.3 4.5 19 14.0 ESE 7 9 4 5 1010.7 1006.9 0.0
22/05:00am 31.1 28.2 4.8 19 14.0 SE 9 11 5 6 1010.2 1006.5 0.0
22/04:30am 31.5 28.3 5.1 19 14.2 SE 11 13 6 7 1010.1 1006.3 0.0
22/04:00am 31.5 28.5 4.3 18 14.4 SE 9 11 5 6 1009.9 1006.1 0.0
22/03:30am 31.8 28.5 4.6 18 14.5 SE 11 13 6 7 1010.0 1006.2 0.0
22/03:00am 32.0 29.1 4.7 18 14.6 SE 9 11 5 6 1010.0 1006.2 0.0
22/02:30am 32.7 29.4 4.5 17 15.1 ESE 11 13 6 7 1010.1 1006.3 0.0
22/02:00am 33.2 30.3 4.9 17 15.3 ESE 9 11 5 6 1010.4 1006.6 0.0
22/01:30am 33.4 30.4 4.2 16 15.6 E 9 11 5 6 1010.5 1006.7 0.0
22/01:00am 34.3 30.9 4.0 15 16.2 ESE 11 17 6 9 1010.8 1007.0 0.0
22/12:30am 34.3 31.1 4.9 16 16.0 ESE 11 13 6 7 1010.9 1007.1 0.0
22/12:00am 34.4 31.0 4.0 15 16.3 ESE 11 13 6 7 1010.9 1007.1 0.0
 
Date/Time
CST
Temp
°C
App
Temp
°C
Dew
Point
°C
Rel
Hum
%
Delta-T
°C
Wind Press
QNH
hPa
Press
MSL
hPa
Rain since
9am
mm
Dir  Spd
km/h
Gust
km/h
Spd
kts
Gust
kts
21/11:30pm 35.3 32.0 4.8 15 16.7 ESE 11 13 6 7 1010.8 1007.0 0.0
21/11:00pm 35.4 32.5 4.8 15 16.7 SE 9 11 5 6 1010.7 1006.9 0.0
21/10:30pm 35.2 32.9 4.7 15 16.6 SSE 6 7 3 4 1010.6 1006.8 0.0
21/10:00pm 36.2 33.7 4.5 14 17.3 SE 7 9 4 5 1010.4 1006.6 0.0
21/09:30pm 36.5 34.0 4.7 14 17.5 SE 7 9 4 5 1010.0 1006.2 0.0
21/09:00pm 36.8 34.3 4.9 14 17.6 SE 7 9 4 5 1009.7 1005.9 0.0
21/08:30pm 37.7 34.8 4.6 13 18.3 SE 9 11 5 6 1009.2 1005.4 0.0
21/08:00pm 38.3 35.6 3.9 12 18.8 SE 7 15 4 8 1008.8 1005.0 0.0
21/07:30pm 39.2 36.9 4.6 12 19.2 ESE 6 9 3 5 1008.5 1004.7 0.0
21/07:00pm 39.7 36.2 3.7 11 19.7 SSE 11 20 6 11 1008.0 1004.2 0.0
21/06:30pm 40.2 36.8 4.1 11 20.0 SE 11 19 6 10 1007.9 1004.1 0.0
21/06:00pm 40.5 36.0 4.3 11 20.2 SE 17 24 9 13 1007.8 1004.0 0.0
21/05:30pm 40.7 36.6 4.5 11 20.2 SSE 15 26 8 14 1007.7 1003.9 0.0
21/05:00pm 40.3 35.8 4.2 11 20.0 S 17 28 9 15 1007.8 1004.0 0.0
21/04:30pm 40.7 35.9 4.5 11 20.2 SSE 19 26 10 14 1007.8 1004.0 0.0
21/04:00pm 40.7 36.3 4.5 11 20.2 SSE 17 32 9 17 1008.0 1004.2 0.0
21/03:30pm 40.9 35.1 4.6 11 20.3 SSE 24 41 13 22 1008.4 1004.6 0.0
21/03:00pm 40.4 35.9 4.3 11 20.1 ENE 17 28 9 15 1008.7 1004.9 0.0
21/02:30pm 40.5 36.4 4.3 11 20.1 SE 15 32 8 17 1009.2 1005.4 0.0
21/02:00pm 40.9 35.5 4.6 11 20.3 E 22 39 12 21 1009.6 1005.8 0.0
21/01:30pm 40.2 35.6 5.4 12 19.6 ENE 19 26 10 14 1010.0 1006.2 0.0
21/01:00pm 39.9 35.8 6.3 13 19.2 ENE 17 28 9 15 1010.6 1006.8 0.0
21/12:30pm 39.1 35.9 6.7 14 18.5 N 13 26 7 14 1011.1 1007.3 0.0
21/12:00pm 37.9 33.9 6.8 15 17.7 E 17 28 9 15 1011.7 1007.9 0.0
21/11:30am 38.0 34.1 6.9 15 17.8 ENE 17 26 9 14 1012.2 1008.5 0.0
21/11:00am 36.7 32.4 7.7 17 16.7 ENE 20 32 11 17 1012.9 1009.1 0.0
21/10:30am 36.4 32.2 8.3 18 16.3 ENE 20 33 11 18 1013.2 1009.4 0.0
21/10:00am 35.3 31.5 9.7 21 15.1 ENE 20 28 11 15 1013.4 1009.6 0.0
21/09:30am 34.2 31.0 10.1 23 14.2 E 17 22 9 12 1013.5 1009.7 0.0
21/09:00am 33.0 28.9 7.8 21 14.3 E 19 24 10 13 1013.6 1009.8 0.0
21/08:30am 32.0 27.9 6.2 20 14.2 ESE 17 22 9 12 1013.4 1009.6 0.0
21/08:00am 30.0 26.5 5.3 21 13.2 SSE 13 20 7 11 1013.2 1009.4 0.0
21/07:30am 26.5 24.0 6.5 28 10.7 SSW 9 11 5 6 1013.1 1009.3 0.0
21/07:00am 24.7 22.8 7.4 33 9.3 S 7 9 4 5 1012.6 1008.8 0.0
21/06:30am 24.8 22.3 6.5 31 9.7 S 9 11 5 6 1012.5 1008.7 0.0
21/06:00am 25.7 23.3 6.8 30 10.1 SSE 9 11 5 6 1012.1 1008.4 0.0
21/05:30am 25.1 22.8 5.8 29 10.1 SE 7 9 4 5 1012.1 1008.4 0.0
21/05:00am 26.8 23.7 5.7 26 11.2 ESE 11 13 6 7 1011.8 1008.0 0.0
21/04:30am 26.9 23.9 4.0 23 11.8 E 9 13 5 7 1011.6 1007.8 0.0
21/04:00am 26.7 23.8 2.6 21 12.1 ENE 7 9 4 5 1011.5 1007.7 0.0
21/03:30am 29.0 25.0 3.1 19 13.3 SE 13 19 7 10 1011.6 1007.8 0.0
21/03:00am 29.9 25.4 2.2 17 14.1 SE 15 20 8 11 1011.6 1007.8 0.0
21/02:30am 29.8 25.8 2.9 18 13.8 SSE 13 17 7 9 1011.8 1008.0 0.0
21/02:00am 29.7 25.7 2.9 18 13.7 SSE 13 17 7 9 1012.1 1008.4 0.0
21/01:30am 31.0 26.7 3.1 17 14.5 SSE 15 26 8 14 1012.1 1008.4 0.0
21/01:00am 30.4 26.0 2.6 17 14.2 SE 15 19 8 10 1012.1 1008.4 0.0
21/12:30am 30.3 27.0 2.5 17 14.2 SE 9 13 5 7 1012.3 1008.6 0.0
21/12:00am 31.4 27.7 2.6 16 14.9 ESE 11 13 6 7 1012.5 1008.7 0.0
 
Date/Time
CST
Temp
°C
App
Temp
°C
Dew
Point
°C
Rel
Hum
%
Delta-T
°C
Wind Press
QNH
hPa
Press
MSL
hPa
Rain since
9am
mm
Dir  Spd
km/h
Gust
km/h
Spd
kts
Gust
kts
20/11:30pm 30.9 27.6 2.2 16 14.7 E 9 19 5 10 1012.5 1008.7 0.0
20/11:00pm 32.4 29.5 2.5 15 15.5 ESE 7 11 4 6 1012.2 1008.5 0.0
20/10:30pm 33.7 30.0 2.5 14 16.3 SE 11 17 6 9 1012.0 1008.2 0.0
20/10:00pm 35.0 30.2 2.5 13 17.1 SSE 17 20 9 11 1011.7 1007.9 0.0

Other formats

Comma delimited format used in spreadsheet applications
http://www.bom.gov.au/fwo/IDD60801/IDD60801.94462.axf

JavaScript Object Notation format (JSON) in row-major order
http://www.bom.gov.au/fwo/IDD60801/IDD60801.94462.json

Data quality

Most of these data are generated automatically and are frequently updated. Quality checks on data are not normally performed. It is possible for incorrect values to appear. Refer to information at About Latest Weather Observations and please check the disclaimer before using these data.